sensor_id;sensor_type;location;lat;lon;timestamp;P1;durP1;ratioP1;P2;durP2;ratioP2
33593;SDS011;19920;52.242;20.940;2023-02-28T00:02:17;20.77;;;10.25;;
33593;SDS011;19920;52.242;20.940;2023-02-28T00:04:43;23.65;;;10.73;;
33593;SDS011;19920;52.242;20.940;2023-02-28T00:07:09;25.13;;;12.07;;
33593;SDS011;19920;52.242;20.940;2023-02-28T00:09:34;26.67;;;11.77;;
33593;SDS011;19920;52.242;20.940;2023-02-28T00:12:00;26.75;;;12.27;;
33593;SDS011;19920;52.242;20.940;2023-02-28T00:14:38;23.88;;;11.68;;
33593;SDS011;19920;52.242;20.940;2023-02-28T00:17:03;21.67;;;10.95;;
33593;SDS011;19920;52.242;20.940;2023-02-28T00:19:29;24.38;;;12.02;;
33593;SDS011;19920;52.242;20.940;2023-02-28T00:21:55;28.30;;;12.80;;
33593;SDS011;19920;52.242;20.940;2023-02-28T00:24:20;27.02;;;11.88;;
33593;SDS011;19920;52.242;20.940;2023-02-28T00:26:46;26.15;;;12.25;;
33593;SDS011;19920;52.242;20.940;2023-02-28T00:29:11;26.02;;;12.98;;
33593;SDS011;19920;52.242;20.940;2023-02-28T00:31:37;29.35;;;13.00;;
33593;SDS011;19920;52.242;20.940;2023-02-28T00:34:02;24.65;;;12.45;;
33593;SDS011;19920;52.242;20.940;2023-02-28T00:36:28;28.55;;;12.32;;
33593;SDS011;19920;52.242;20.940;2023-02-28T00:38:54;25.33;;;12.40;;
33593;SDS011;19920;52.242;20.940;2023-02-28T00:41:19;27.13;;;12.00;;
33593;SDS011;19920;52.242;20.940;2023-02-28T00:43:45;23.98;;;12.18;;
33593;SDS011;19920;52.242;20.940;2023-02-28T00:46:10;24.02;;;11.20;;
33593;SDS011;19920;52.242;20.940;2023-02-28T00:48:36;30.15;;;12.55;;
33593;SDS011;19920;52.242;20.940;2023-02-28T00:51:02;27.27;;;12.70;;
33593;SDS011;19920;52.242;20.940;2023-02-28T00:53:28;23.30;;;12.10;;
33593;SDS011;19920;52.242;20.940;2023-02-28T00:55:54;27.50;;;11.98;;
33593;SDS011;19920;52.242;20.940;2023-02-28T00:58:20;27.73;;;11.70;;
33593;SDS011;19920;52.242;20.940;2023-02-28T01:00:46;26.00;;;11.43;;
33593;SDS011;19920;52.242;20.940;2023-02-28T01:03:16;23.77;;;11.35;;
33593;SDS011;19920;52.242;20.940;2023-02-28T01:05:43;24.73;;;11.60;;
33593;SDS011;19920;52.242;20.940;2023-02-28T01:08:08;25.67;;;11.73;;
33593;SDS011;19920;52.242;20.940;2023-02-28T01:10:34;24.95;;;11.38;;
33593;SDS011;19920;52.242;20.940;2023-02-28T01:13:01;23.05;;;11.02;;
33593;SDS011;19920;52.242;20.940;2023-02-28T01:15:27;24.30;;;10.65;;
33593;SDS011;19920;52.242;20.940;2023-02-28T01:17:53;26.63;;;11.55;;
33593;SDS011;19920;52.242;20.940;2023-02-28T01:20:19;22.77;;;11.50;;
33593;SDS011;19920;52.242;20.940;2023-02-28T01:22:45;24.08;;;11.35;;
33593;SDS011;19920;52.242;20.940;2023-02-28T01:25:11;23.92;;;11.55;;
33593;SDS011;19920;52.242;20.940;2023-02-28T01:27:37;23.33;;;11.13;;
33593;SDS011;19920;52.242;20.940;2023-02-28T01:30:04;26.65;;;12.18;;
33593;SDS011;19920;52.242;20.940;2023-02-28T01:32:31;28.80;;;11.88;;
33593;SDS011;19920;52.242;20.940;2023-02-28T01:34:57;27.48;;;12.48;;
33593;SDS011;19920;52.242;20.940;2023-02-28T01:37:22;26.45;;;12.18;;
33593;SDS011;19920;52.242;20.940;2023-02-28T01:39:48;29.30;;;12.85;;
33593;SDS011;19920;52.242;20.940;2023-02-28T01:42:13;24.23;;;12.15;;
33593;SDS011;19920;52.242;20.940;2023-02-28T01:44:59;26.63;;;12.88;;
33593;SDS011;19920;52.242;20.940;2023-02-28T01:47:26;26.95;;;12.18;;
33593;SDS011;19920;52.242;20.940;2023-02-28T01:52:21;22.50;;;10.73;;
33593;SDS011;19920;52.242;20.940;2023-02-28T01:54:51;24.48;;;12.15;;
33593;SDS011;19920;52.242;20.940;2023-02-28T01:57:19;28.33;;;12.43;;
33593;SDS011;19920;52.242;20.940;2023-02-28T02:00:32;27.33;;;12.43;;
33593;SDS011;19920;52.242;20.940;2023-02-28T02:02:41;22.80;;;11.35;;
33593;SDS011;19920;52.242;20.940;2023-02-28T02:05:10;25.98;;;11.90;;
33593;SDS011;19920;52.242;20.940;2023-02-28T02:07:40;25.30;;;12.05;;
33593;SDS011;19920;52.242;20.940;2023-02-28T02:10:13;29.42;;;12.68;;
33593;SDS011;19920;52.242;20.940;2023-02-28T02:18:30;23.00;;;9.70;;
33593;SDS011;19920;52.242;20.940;2023-02-28T02:24:01;27.70;;;11.15;;
33593;SDS011;19920;52.242;20.940;2023-02-28T02:29:15;27.17;;;11.70;;
33593;SDS011;19920;52.242;20.940;2023-02-28T02:45:22;25.13;;;11.77;;
33593;SDS011;19920;52.242;20.940;2023-02-28T02:47:49;22.35;;;11.55;;
33593;SDS011;19920;52.242;20.940;2023-02-28T02:50:38;26.30;;;11.52;;
33593;SDS011;19920;52.242;20.940;2023-02-28T02:53:05;25.73;;;12.15;;
33593;SDS011;19920;52.242;20.940;2023-02-28T02:55:34;26.35;;;11.48;;
33593;SDS011;19920;52.242;20.940;2023-02-28T02:58:04;24.25;;;12.07;;
33593;SDS011;19920;52.242;20.940;2023-02-28T03:00:34;29.95;;;12.93;;
33593;SDS011;19920;52.242;20.940;2023-02-28T03:03:04;26.52;;;13.05;;
33593;SDS011;19920;52.242;20.940;2023-02-28T03:05:42;28.65;;;13.05;;
33593;SDS011;19920;52.242;20.940;2023-02-28T03:10:39;26.10;;;13.10;;
33593;SDS011;19920;52.242;20.940;2023-02-28T03:18:36;36.22;;;14.45;;
33593;SDS011;19920;52.242;20.940;2023-02-28T03:24:04;30.05;;;13.45;;
33593;SDS011;19920;52.242;20.940;2023-02-28T03:26:45;32.28;;;13.18;;
33593;SDS011;19920;52.242;20.940;2023-02-28T03:29:33;21.67;;;9.65;;
33593;SDS011;19920;52.242;20.940;2023-02-28T03:32:16;27.27;;;12.63;;
33593;SDS011;19920;52.242;20.940;2023-02-28T03:34:56;28.67;;;13.07;;
33593;SDS011;19920;52.242;20.940;2023-02-28T03:37:25;31.17;;;13.25;;
33593;SDS011;19920;52.242;20.940;2023-02-28T03:39:56;33.63;;;13.65;;
33593;SDS011;19920;52.242;20.940;2023-02-28T03:42:31;29.23;;;13.68;;
33593;SDS011;19920;52.242;20.940;2023-02-28T03:45:02;28.15;;;13.50;;
33593;SDS011;19920;52.242;20.940;2023-02-28T03:47:35;35.45;;;13.95;;
33593;SDS011;19920;52.242;20.940;2023-02-28T03:50:20;29.98;;;14.00;;
33593;SDS011;19920;52.242;20.940;2023-02-28T03:52:58;33.20;;;14.50;;
33593;SDS011;19920;52.242;20.940;2023-02-28T03:55:32;34.63;;;14.98;;
33593;SDS011;19920;52.242;20.940;2023-02-28T04:01:12;44.30;;;19.10;;
33593;SDS011;19920;52.242;20.940;2023-02-28T04:03:46;50.38;;;21.23;;
33593;SDS011;19920;52.242;20.940;2023-02-28T04:06:19;44.38;;;20.23;;
33593;SDS011;19920;52.242;20.940;2023-02-28T04:08:46;55.97;;;22.75;;
33593;SDS011;19920;52.242;20.940;2023-02-28T04:11:20;47.47;;;20.52;;
33593;SDS011;19920;52.242;20.940;2023-02-28T04:13:48;48.38;;;19.02;;
33593;SDS011;19920;52.242;20.940;2023-02-28T04:16:14;43.90;;;19.63;;
33593;SDS011;19920;52.242;20.940;2023-02-28T04:18:41;44.60;;;18.10;;
33593;SDS011;19920;52.242;20.940;2023-02-28T04:21:10;40.65;;;17.67;;
33593;SDS011;19920;52.242;20.940;2023-02-28T04:23:36;39.75;;;17.50;;
33593;SDS011;19920;52.242;20.940;2023-02-28T04:26:02;41.03;;;16.88;;
33593;SDS011;19920;52.242;20.940;2023-02-28T04:28:29;36.72;;;16.75;;
33593;SDS011;19920;52.242;20.940;2023-02-28T04:30:58;39.95;;;17.20;;
33593;SDS011;19920;52.242;20.940;2023-02-28T04:33:25;42.55;;;17.27;;
33593;SDS011;19920;52.242;20.940;2023-02-28T04:35:58;41.08;;;18.00;;
33593;SDS011;19920;52.242;20.940;2023-02-28T04:38:28;49.92;;;21.08;;
33593;SDS011;19920;52.242;20.940;2023-02-28T04:40:58;44.83;;;19.92;;
33593;SDS011;19920;52.242;20.940;2023-02-28T04:43:25;48.10;;;19.52;;
33593;SDS011;19920;52.242;20.940;2023-02-28T04:45:52;48.58;;;19.48;;
33593;SDS011;19920;52.242;20.940;2023-02-28T04:48:21;45.63;;;21.13;;
33593;SDS011;19920;52.242;20.940;2023-02-28T04:50:51;33.58;;;17.05;;
33593;SDS011;19920;52.242;20.940;2023-02-28T04:53:17;57.90;;;24.33;;
33593;SDS011;19920;52.242;20.940;2023-02-28T04:55:43;54.60;;;24.40;;
33593;SDS011;19920;52.242;20.940;2023-02-28T04:58:09;52.25;;;20.67;;
33593;SDS011;19920;52.242;20.940;2023-02-28T05:00:35;47.58;;;19.85;;
33593;SDS011;19920;52.242;20.940;2023-02-28T05:03:01;48.22;;;20.77;;
33593;SDS011;19920;52.242;20.940;2023-02-28T05:05:26;47.63;;;21.40;;
33593;SDS011;19920;52.242;20.940;2023-02-28T05:07:52;54.30;;;23.90;;
33593;SDS011;19920;52.242;20.940;2023-02-28T05:10:18;47.05;;;21.15;;
33593;SDS011;19920;52.242;20.940;2023-02-28T05:12:44;54.85;;;21.00;;
33593;SDS011;19920;52.242;20.940;2023-02-28T05:15:13;50.10;;;21.35;;
33593;SDS011;19920;52.242;20.940;2023-02-28T05:17:39;46.85;;;21.45;;
33593;SDS011;19920;52.242;20.940;2023-02-28T05:20:06;46.72;;;20.45;;
33593;SDS011;19920;52.242;20.940;2023-02-28T05:22:32;54.05;;;19.80;;
33593;SDS011;19920;52.242;20.940;2023-02-28T05:24:58;50.30;;;19.00;;
33593;SDS011;19920;52.242;20.940;2023-02-28T05:27:23;52.53;;;22.02;;
33593;SDS011;19920;52.242;20.940;2023-02-28T05:29:49;56.42;;;21.58;;
33593;SDS011;19920;52.242;20.940;2023-02-28T05:32:15;43.92;;;19.45;;
33593;SDS011;19920;52.242;20.940;2023-02-28T05:34:41;48.38;;;20.58;;
33593;SDS011;19920;52.242;20.940;2023-02-28T05:37:13;45.35;;;19.92;;
33593;SDS011;19920;52.242;20.940;2023-02-28T05:39:40;45.08;;;19.27;;
33593;SDS011;19920;52.242;20.940;2023-02-28T05:42:06;45.72;;;19.45;;
33593;SDS011;19920;52.242;20.940;2023-02-28T05:44:33;56.33;;;21.38;;
33593;SDS011;19920;52.242;20.940;2023-02-28T05:46:58;48.95;;;19.98;;
33593;SDS011;19920;52.242;20.940;2023-02-28T05:49:24;50.05;;;20.48;;
33593;SDS011;19920;52.242;20.940;2023-02-28T05:51:49;51.00;;;20.67;;
33593;SDS011;19920;52.242;20.940;2023-02-28T05:54:15;51.10;;;20.83;;
33593;SDS011;19920;52.242;20.940;2023-02-28T05:56:41;53.50;;;20.80;;
33593;SDS011;19920;52.242;20.940;2023-02-28T05:59:09;55.03;;;20.70;;
33593;SDS011;19920;52.242;20.940;2023-02-28T06:01:36;52.00;;;20.88;;
33593;SDS011;19920;52.242;20.940;2023-02-28T06:04:07;51.85;;;20.90;;
33593;SDS011;19920;52.242;20.940;2023-02-28T06:06:34;56.85;;;22.30;;
33593;SDS011;19920;52.242;20.940;2023-02-28T06:09:02;50.88;;;21.55;;
33593;SDS011;19920;52.242;20.940;2023-02-28T06:11:29;54.13;;;22.27;;
33593;SDS011;19920;52.242;20.940;2023-02-28T06:13:55;58.22;;;22.35;;
33593;SDS011;19920;52.242;20.940;2023-02-28T06:16:24;55.70;;;22.20;;
33593;SDS011;19920;52.242;20.940;2023-02-28T06:18:50;53.53;;;22.67;;
33593;SDS011;19920;52.242;20.940;2023-02-28T06:21:15;51.78;;;21.55;;
33593;SDS011;19920;52.242;20.940;2023-02-28T06:23:41;50.33;;;20.98;;
33593;SDS011;19920;52.242;20.940;2023-02-28T06:26:07;51.40;;;19.95;;
33593;SDS011;19920;52.242;20.940;2023-02-28T06:28:32;46.17;;;19.55;;
33593;SDS011;19920;52.242;20.940;2023-02-28T06:30:58;43.58;;;18.38;;
33593;SDS011;19920;52.242;20.940;2023-02-28T06:33:23;42.35;;;17.60;;
33593;SDS011;19920;52.242;20.940;2023-02-28T06:35:50;36.45;;;17.45;;
33593;SDS011;19920;52.242;20.940;2023-02-28T06:38:16;35.50;;;15.73;;
33593;SDS011;19920;52.242;20.940;2023-02-28T06:40:43;33.83;;;15.45;;
33593;SDS011;19920;52.242;20.940;2023-02-28T06:43:09;37.88;;;15.90;;
33593;SDS011;19920;52.242;20.940;2023-02-28T06:45:40;39.80;;;16.92;;
33593;SDS011;19920;52.242;20.940;2023-02-28T06:48:07;27.58;;;12.27;;
33593;SDS011;19920;52.242;20.940;2023-02-28T06:50:32;35.25;;;15.77;;
33593;SDS011;19920;52.242;20.940;2023-02-28T06:52:58;33.72;;;14.70;;
33593;SDS011;19920;52.242;20.940;2023-02-28T06:55:24;34.03;;;13.88;;
33593;SDS011;19920;52.242;20.940;2023-02-28T06:57:49;25.77;;;12.00;;
33593;SDS011;19920;52.242;20.940;2023-02-28T07:00:15;28.55;;;13.02;;
33593;SDS011;19920;52.242;20.940;2023-02-28T07:02:41;21.23;;;11.52;;
33593;SDS011;19920;52.242;20.940;2023-02-28T07:05:07;22.88;;;11.32;;
33593;SDS011;19920;52.242;20.940;2023-02-28T07:07:33;22.73;;;10.05;;
33593;SDS011;19920;52.242;20.940;2023-02-28T07:10:00;28.67;;;13.68;;
33593;SDS011;19920;52.242;20.940;2023-02-28T07:12:26;23.60;;;12.68;;
33593;SDS011;19920;52.242;20.940;2023-02-28T07:14:52;16.48;;;8.15;;
33593;SDS011;19920;52.242;20.940;2023-02-28T07:17:19;15.80;;;7.75;;
33593;SDS011;19920;52.242;20.940;2023-02-28T07:19:44;17.50;;;7.40;;
33593;SDS011;19920;52.242;20.940;2023-02-28T07:22:11;17.83;;;7.55;;
33593;SDS011;19920;52.242;20.940;2023-02-28T07:24:36;17.25;;;7.65;;
33593;SDS011;19920;52.242;20.940;2023-02-28T07:27:03;15.20;;;7.22;;
33593;SDS011;19920;52.242;20.940;2023-02-28T07:29:29;8.52;;;5.40;;
33593;SDS011;19920;52.242;20.940;2023-02-28T07:31:54;13.73;;;6.30;;
33593;SDS011;19920;52.242;20.940;2023-02-28T07:34:20;12.65;;;6.90;;
33593;SDS011;19920;52.242;20.940;2023-02-28T07:36:47;12.57;;;6.57;;
33593;SDS011;19920;52.242;20.940;2023-02-28T07:39:12;10.77;;;6.68;;
33593;SDS011;19920;52.242;20.940;2023-02-28T07:41:38;10.15;;;5.65;;
33593;SDS011;19920;52.242;20.940;2023-02-28T07:44:09;12.73;;;6.57;;
33593;SDS011;19920;52.242;20.940;2023-02-28T07:46:35;13.20;;;6.03;;
33593;SDS011;19920;52.242;20.940;2023-02-28T07:49:01;10.35;;;5.35;;
33593;SDS011;19920;52.242;20.940;2023-02-28T07:51:28;9.63;;;5.05;;
33593;SDS011;19920;52.242;20.940;2023-02-28T07:53:54;9.15;;;5.38;;
33593;SDS011;19920;52.242;20.940;2023-02-28T07:56:20;8.27;;;5.15;;
33593;SDS011;19920;52.242;20.940;2023-02-28T07:58:45;8.60;;;5.32;;
33593;SDS011;19920;52.242;20.940;2023-02-28T08:01:11;11.25;;;5.47;;
33593;SDS011;19920;52.242;20.940;2023-02-28T08:03:38;11.43;;;6.07;;
33593;SDS011;19920;52.242;20.940;2023-02-28T08:06:05;10.88;;;5.97;;
33593;SDS011;19920;52.242;20.940;2023-02-28T08:08:33;10.07;;;6.20;;
33593;SDS011;19920;52.242;20.940;2023-02-28T08:10:59;10.90;;;6.40;;
33593;SDS011;19920;52.242;20.940;2023-02-28T08:13:26;12.88;;;6.30;;
33593;SDS011;19920;52.242;20.940;2023-02-28T08:15:53;11.48;;;6.15;;
33593;SDS011;19920;52.242;20.940;2023-02-28T08:18:19;8.65;;;6.28;;
33593;SDS011;19920;52.242;20.940;2023-02-28T08:20:45;11.65;;;6.90;;
33593;SDS011;19920;52.242;20.940;2023-02-28T08:23:11;12.38;;;7.28;;
33593;SDS011;19920;52.242;20.940;2023-02-28T08:25:37;16.23;;;6.80;;
33593;SDS011;19920;52.242;20.940;2023-02-28T08:28:02;11.18;;;6.50;;
33593;SDS011;19920;52.242;20.940;2023-02-28T08:30:28;11.30;;;6.90;;
33593;SDS011;19920;52.242;20.940;2023-02-28T08:32:54;12.50;;;6.65;;
33593;SDS011;19920;52.242;20.940;2023-02-28T08:35:20;13.98;;;7.57;;
33593;SDS011;19920;52.242;20.940;2023-02-28T08:37:49;13.50;;;7.10;;
33593;SDS011;19920;52.242;20.940;2023-02-28T08:40:15;11.35;;;6.93;;
33593;SDS011;19920;52.242;20.940;2023-02-28T08:42:43;12.02;;;7.07;;
33593;SDS011;19920;52.242;20.940;2023-02-28T08:45:10;12.27;;;7.32;;
33593;SDS011;19920;52.242;20.940;2023-02-28T08:47:36;14.38;;;7.30;;
33593;SDS011;19920;52.242;20.940;2023-02-28T08:50:02;13.27;;;7.40;;
33593;SDS011;19920;52.242;20.940;2023-02-28T08:52:28;12.02;;;7.18;;
33593;SDS011;19920;52.242;20.940;2023-02-28T08:54:54;13.10;;;7.15;;
33593;SDS011;19920;52.242;20.940;2023-02-28T08:57:19;12.43;;;7.40;;
33593;SDS011;19920;52.242;20.940;2023-02-28T08:59:45;15.77;;;8.10;;
33593;SDS011;19920;52.242;20.940;2023-02-28T09:02:14;11.60;;;6.90;;
33593;SDS011;19920;52.242;20.940;2023-02-28T09:04:40;12.43;;;7.35;;
33593;SDS011;19920;52.242;20.940;2023-02-28T09:07:06;15.13;;;7.75;;
33593;SDS011;19920;52.242;20.940;2023-02-28T09:09:32;15.05;;;8.25;;
33593;SDS011;19920;52.242;20.940;2023-02-28T09:11:58;15.63;;;8.25;;
33593;SDS011;19920;52.242;20.940;2023-02-28T09:14:24;10.95;;;7.35;;
33593;SDS011;19920;52.242;20.940;2023-02-28T09:16:49;13.30;;;7.88;;
33593;SDS011;19920;52.242;20.940;2023-02-28T09:19:15;11.25;;;7.63;;
33593;SDS011;19920;52.242;20.940;2023-02-28T09:21:40;18.15;;;8.40;;
33593;SDS011;19920;52.242;20.940;2023-02-28T09:24:06;11.85;;;7.80;;
33593;SDS011;19920;52.242;20.940;2023-02-28T09:26:32;17.35;;;7.50;;
33593;SDS011;19920;52.242;20.940;2023-02-28T09:28:59;12.68;;;7.45;;
33593;SDS011;19920;52.242;20.940;2023-02-28T09:31:27;11.02;;;7.47;;
33593;SDS011;19920;52.242;20.940;2023-02-28T09:33:54;13.93;;;8.02;;
33593;SDS011;19920;52.242;20.940;2023-02-28T09:36:22;11.77;;;7.60;;
33593;SDS011;19920;52.242;20.940;2023-02-28T09:38:49;14.57;;;7.40;;
33593;SDS011;19920;52.242;20.940;2023-02-28T09:41:23;12.13;;;7.47;;
33593;SDS011;19920;52.242;20.940;2023-02-28T09:43:54;12.85;;;8.23;;
33593;SDS011;19920;52.242;20.940;2023-02-28T09:48:59;13.38;;;7.80;;
33593;SDS011;19920;52.242;20.940;2023-02-28T09:54:05;16.15;;;7.57;;
33593;SDS011;19920;52.242;20.940;2023-02-28T09:56:33;11.75;;;7.53;;
33593;SDS011;19920;52.242;20.940;2023-02-28T10:06:55;13.93;;;6.70;;
33593;SDS011;19920;52.242;20.940;2023-02-28T10:09:26;16.65;;;7.75;;
33593;SDS011;19920;52.242;20.940;2023-02-28T10:11:56;14.50;;;7.60;;
33593;SDS011;19920;52.242;20.940;2023-02-28T10:14:28;14.20;;;7.85;;
33593;SDS011;19920;52.242;20.940;2023-02-28T10:16:58;21.73;;;7.95;;
33593;SDS011;19920;52.242;20.940;2023-02-28T10:20:11;12.40;;;6.82;;
33593;SDS011;19920;52.242;20.940;2023-02-28T10:25:24;16.02;;;7.60;;
33593;SDS011;19920;52.242;20.940;2023-02-28T10:27:53;14.43;;;7.47;;
33593;SDS011;19920;52.242;20.940;2023-02-28T10:30:25;13.80;;;7.63;;
33593;SDS011;19920;52.242;20.940;2023-02-28T10:32:51;11.38;;;7.25;;
33593;SDS011;19920;52.242;20.940;2023-02-28T10:35:23;15.15;;;7.25;;
33593;SDS011;19920;52.242;20.940;2023-02-28T10:37:51;13.20;;;8.10;;
33593;SDS011;19920;52.242;20.940;2023-02-28T10:45:20;12.10;;;7.40;;
33593;SDS011;19920;52.242;20.940;2023-02-28T10:47:51;13.98;;;8.18;;
33593;SDS011;19920;52.242;20.940;2023-02-28T10:51:02;11.27;;;7.75;;
33593;SDS011;19920;52.242;20.940;2023-02-28T10:55:58;13.93;;;7.55;;
33593;SDS011;19920;52.242;20.940;2023-02-28T10:58:28;11.93;;;8.02;;
33593;SDS011;19920;52.242;20.940;2023-02-28T11:00:56;14.55;;;8.98;;
33593;SDS011;19920;52.242;20.940;2023-02-28T11:03:33;17.00;;;9.60;;
33593;SDS011;19920;52.242;20.940;2023-02-28T11:06:07;18.75;;;8.02;;
33593;SDS011;19920;52.242;20.940;2023-02-28T11:08:57;14.35;;;8.20;;
33593;SDS011;19920;52.242;20.940;2023-02-28T11:11:26;15.00;;;8.20;;
33593;SDS011;19920;52.242;20.940;2023-02-28T11:13:57;15.15;;;8.90;;
33593;SDS011;19920;52.242;20.940;2023-02-28T11:16:33;15.27;;;8.20;;
33593;SDS011;19920;52.242;20.940;2023-02-28T11:19:00;14.02;;;8.38;;
33593;SDS011;19920;52.242;20.940;2023-02-28T11:21:37;12.88;;;8.45;;
33593;SDS011;19920;52.242;20.940;2023-02-28T11:26:48;14.18;;;8.25;;
33593;SDS011;19920;52.242;20.940;2023-02-28T11:31:45;19.33;;;8.32;;
33593;SDS011;19920;52.242;20.940;2023-02-28T11:34:32;13.25;;;8.77;;
33593;SDS011;19920;52.242;20.940;2023-02-28T11:36:58;16.05;;;8.80;;
33593;SDS011;19920;52.242;20.940;2023-02-28T11:39:25;13.00;;;8.75;;
33593;SDS011;19920;52.242;20.940;2023-02-28T11:47:12;15.30;;;8.55;;
33593;SDS011;19920;52.242;20.940;2023-02-28T12:06:25;16.30;;;8.80;;
33593;SDS011;19920;52.242;20.940;2023-02-28T12:09:04;14.50;;;8.75;;
33593;SDS011;19920;52.242;20.940;2023-02-28T12:12:05;15.88;;;8.88;;
33593;SDS011;19920;52.242;20.940;2023-02-28T12:17:38;12.68;;;8.82;;
33593;SDS011;19920;52.242;20.940;2023-02-28T12:26:19;13.75;;;8.30;;
33593;SDS011;19920;52.242;20.940;2023-02-28T12:28:49;15.10;;;8.52;;
33593;SDS011;19920;52.242;20.940;2023-02-28T12:31:24;16.00;;;9.23;;
33593;SDS011;19920;52.242;20.940;2023-02-28T12:33:57;16.92;;;9.32;;
33593;SDS011;19920;52.242;20.940;2023-02-28T12:36:28;16.23;;;8.75;;
33593;SDS011;19920;52.242;20.940;2023-02-28T12:41:54;18.00;;;8.98;;
33593;SDS011;19920;52.242;20.940;2023-02-28T12:44:30;14.32;;;8.65;;
33593;SDS011;19920;52.242;20.940;2023-02-28T12:47:01;13.95;;;9.00;;
33593;SDS011;19920;52.242;20.940;2023-02-28T12:52:03;18.73;;;9.48;;
33593;SDS011;19920;52.242;20.940;2023-02-28T12:57:36;17.02;;;9.93;;
33593;SDS011;19920;52.242;20.940;2023-02-28T13:00:16;14.70;;;8.57;;
33593;SDS011;19920;52.242;20.940;2023-02-28T13:02:55;16.63;;;9.50;;
33593;SDS011;19920;52.242;20.940;2023-02-28T13:11:48;13.52;;;8.18;;
33593;SDS011;19920;52.242;20.940;2023-02-28T13:14:20;14.82;;;8.30;;
33593;SDS011;19920;52.242;20.940;2023-02-28T13:16:56;13.18;;;8.45;;
33593;SDS011;19920;52.242;20.940;2023-02-28T13:19:36;14.00;;;8.20;;
33593;SDS011;19920;52.242;20.940;2023-02-28T13:22:17;12.75;;;8.38;;
33593;SDS011;19920;52.242;20.940;2023-02-28T13:25:04;12.70;;;7.72;;
33593;SDS011;19920;52.242;20.940;2023-02-28T13:28:10;13.25;;;8.48;;
33593;SDS011;19920;52.242;20.940;2023-02-28T13:33:20;12.35;;;8.10;;
33593;SDS011;19920;52.242;20.940;2023-02-28T13:36:22;13.00;;;7.68;;
33593;SDS011;19920;52.242;20.940;2023-02-28T13:46:31;13.55;;;8.57;;
33593;SDS011;19920;52.242;20.940;2023-02-28T14:00:15;14.52;;;8.57;;
33593;SDS011;19920;52.242;20.940;2023-02-28T14:05:17;13.95;;;7.88;;
33593;SDS011;19920;52.242;20.940;2023-02-28T14:07:50;14.55;;;8.20;;
33593;SDS011;19920;52.242;20.940;2023-02-28T14:18:24;13.07;;;8.00;;
33593;SDS011;19920;52.242;20.940;2023-02-28T14:20:52;13.80;;;8.32;;
33593;SDS011;19920;52.242;20.940;2023-02-28T14:28:54;13.18;;;8.00;;
33593;SDS011;19920;52.242;20.940;2023-02-28T14:31:34;14.18;;;8.60;;
33593;SDS011;19920;52.242;20.940;2023-02-28T14:36:50;16.73;;;8.40;;
33593;SDS011;19920;52.242;20.940;2023-02-28T14:39:20;13.82;;;8.93;;
33593;SDS011;19920;52.242;20.940;2023-02-28T14:41:50;12.77;;;7.72;;
33593;SDS011;19920;52.242;20.940;2023-02-28T14:44:20;12.82;;;8.13;;
33593;SDS011;19920;52.242;20.940;2023-02-28T14:46:57;13.48;;;8.07;;
33593;SDS011;19920;52.242;20.940;2023-02-28T14:49:34;14.48;;;8.70;;
33593;SDS011;19920;52.242;20.940;2023-02-28T14:52:20;12.27;;;8.20;;
33593;SDS011;19920;52.242;20.940;2023-02-28T14:54:52;12.23;;;8.05;;
33593;SDS011;19920;52.242;20.940;2023-02-28T14:57:21;10.32;;;7.10;;
33593;SDS011;19920;52.242;20.940;2023-02-28T15:00:04;13.90;;;8.45;;
33593;SDS011;19920;52.242;20.940;2023-02-28T15:02:53;14.55;;;9.13;;
33593;SDS011;19920;52.242;20.940;2023-02-28T15:05:29;16.20;;;8.30;;
33593;SDS011;19920;52.242;20.940;2023-02-28T15:08:28;16.25;;;8.70;;
33593;SDS011;19920;52.242;20.940;2023-02-28T15:10:51;11.88;;;8.15;;
33593;SDS011;19920;52.242;20.940;2023-02-28T15:13:20;18.02;;;8.73;;
33593;SDS011;19920;52.242;20.940;2023-02-28T15:15:54;19.58;;;8.38;;
33593;SDS011;19920;52.242;20.940;2023-02-28T15:18:25;14.95;;;8.38;;
33593;SDS011;19920;52.242;20.940;2023-02-28T15:21:02;15.88;;;8.80;;
33593;SDS011;19920;52.242;20.940;2023-02-28T15:23:34;13.82;;;8.68;;
33593;SDS011;19920;52.242;20.940;2023-02-28T15:26:01;19.08;;;8.10;;
33593;SDS011;19920;52.242;20.940;2023-02-28T15:28:28;12.98;;;8.05;;
33593;SDS011;19920;52.242;20.940;2023-02-28T15:30:56;17.33;;;9.20;;
33593;SDS011;19920;52.242;20.940;2023-02-28T15:33:25;14.70;;;8.73;;
33593;SDS011;19920;52.242;20.940;2023-02-28T15:36:05;18.30;;;9.57;;
33593;SDS011;19920;52.242;20.940;2023-02-28T15:38:38;18.55;;;8.95;;
33593;SDS011;19920;52.242;20.940;2023-02-28T15:41:03;14.63;;;9.02;;
33593;SDS011;19920;52.242;20.940;2023-02-28T15:43:34;16.33;;;8.15;;
33593;SDS011;19920;52.242;20.940;2023-02-28T15:46:07;15.27;;;8.90;;
33593;SDS011;19920;52.242;20.940;2023-02-28T15:48:36;23.52;;;9.77;;
33593;SDS011;19920;52.242;20.940;2023-02-28T15:51:09;17.48;;;9.63;;
33593;SDS011;19920;52.242;20.940;2023-02-28T15:54:05;18.10;;;9.82;;
33593;SDS011;19920;52.242;20.940;2023-02-28T15:56:34;20.58;;;9.93;;
33593;SDS011;19920;52.242;20.940;2023-02-28T15:59:04;20.25;;;9.50;;
33593;SDS011;19920;52.242;20.940;2023-02-28T16:01:41;16.08;;;9.68;;
33593;SDS011;19920;52.242;20.940;2023-02-28T16:04:15;19.92;;;9.95;;
33593;SDS011;19920;52.242;20.940;2023-02-28T16:06:43;21.15;;;10.90;;
33593;SDS011;19920;52.242;20.940;2023-02-28T16:09:18;22.10;;;10.95;;
33593;SDS011;19920;52.242;20.940;2023-02-28T16:11:45;17.17;;;9.95;;
33593;SDS011;19920;52.242;20.940;2023-02-28T16:14:14;21.45;;;10.30;;
33593;SDS011;19920;52.242;20.940;2023-02-28T16:16:45;19.75;;;10.48;;
33593;SDS011;19920;52.242;20.940;2023-02-28T16:19:13;20.03;;;11.10;;
33593;SDS011;19920;52.242;20.940;2023-02-28T16:21:39;17.50;;;10.70;;
33593;SDS011;19920;52.242;20.940;2023-02-28T16:24:05;21.85;;;11.00;;
33593;SDS011;19920;52.242;20.940;2023-02-28T16:26:31;21.05;;;10.90;;
33593;SDS011;19920;52.242;20.940;2023-02-28T16:28:59;18.42;;;10.85;;
33593;SDS011;19920;52.242;20.940;2023-02-28T16:31:26;21.45;;;11.68;;
33593;SDS011;19920;52.242;20.940;2023-02-28T16:33:52;27.65;;;11.98;;
33593;SDS011;19920;52.242;20.940;2023-02-28T16:36:19;20.98;;;11.80;;
33593;SDS011;19920;52.242;20.940;2023-02-28T16:38:46;21.58;;;11.98;;
33593;SDS011;19920;52.242;20.940;2023-02-28T16:41:14;22.00;;;11.23;;
33593;SDS011;19920;52.242;20.940;2023-02-28T16:43:48;25.92;;;12.50;;
33593;SDS011;19920;52.242;20.940;2023-02-28T16:46:17;24.42;;;12.70;;
33593;SDS011;19920;52.242;20.940;2023-02-28T16:48:44;20.02;;;12.15;;
33593;SDS011;19920;52.242;20.940;2023-02-28T16:51:13;25.00;;;12.55;;
33593;SDS011;19920;52.242;20.940;2023-02-28T16:53:40;27.73;;;13.30;;
33593;SDS011;19920;52.242;20.940;2023-02-28T16:56:06;23.55;;;11.95;;
33593;SDS011;19920;52.242;20.940;2023-02-28T16:58:37;26.95;;;13.27;;
33593;SDS011;19920;52.242;20.940;2023-02-28T17:01:03;34.58;;;17.52;;
33593;SDS011;19920;52.242;20.940;2023-02-28T17:03:29;43.22;;;21.25;;
33593;SDS011;19920;52.242;20.940;2023-02-28T17:05:55;45.60;;;21.88;;
33593;SDS011;19920;52.242;20.940;2023-02-28T17:08:20;25.25;;;14.95;;